Latest Weather Observations for Kanagulk

IDV60801

Issued at 8:02 pm EST Friday 4 September 2015 (issued every 30 minutes, with the page automatically refreshed every 10 minutes)

About weather observations | Map of weather stations | Latest weather observations for VIC | Other Formats
Station Details ID: 079097 Name: KANAGULK Lat: -37.12 Lon: 141.80 Height: 188.8 m
Data from the previous 72 hours. | See also: Recent months at Kanagulk
Date/Time
EST
Temp
°C
App
Temp
°C
Dew
Point
Rel
Hum
%
Delta-T
°C
Wind Press
QNH
hPa
Press
MSL
hPa
Rain
since 9 am
mm
Dir
 
Spd
km/h
Gust
km/h
Spd
kts
Gust
kts
04/08:00pm 10.2 7.3 4.8 69 2.4 S 9 13 5 7 1025.5 1025.6 0.0
04/07:30pm 10.0 8.1 5.0 71 2.3 S 4 7 2 4 1025.5 1025.6 0.0
04/07:00pm 10.2 8.0 5.2 71 2.3 S 6 9 3 5 1025.4 1025.5 0.0
04/06:30pm 10.6 7.4 4.9 68 2.6 S 11 15 6 8 1025.4 1025.5 0.0
04/06:00pm 10.9 8.0 4.8 66 2.8 SSW 9 13 5 7 1025.4 1025.5 0.0
04/05:30pm 11.0 7.8 4.9 66 2.8 SSW 11 15 6 8 1025.3 1025.4 0.0
04/05:00pm 11.3 7.7 5.0 65 2.9 SSW 13 20 7 11 1025.1 1025.2 0.0
04/04:30pm 11.4 7.8 4.8 64 3.0 SSW 13 19 7 10 1024.9 1025.0 0.0
04/04:00pm 11.8 8.3 5.4 65 3.0 SSW 13 20 7 11 1024.8 1024.9 0.0
04/03:30pm 11.9 7.9 5.1 63 3.2 S 15 24 8 13 1024.7 1024.8 0.0
04/03:00pm 12.8 8.5 5.2 60 3.5 SW 17 26 9 14 1024.9 1025.0 0.0
04/02:30pm 12.6 9.0 5.1 60 3.5 SSW 13 26 7 14 1024.7 1024.8 0.0
04/02:00pm 12.3 8.6 4.5 59 3.6 SW 13 24 7 13 1025.0 1025.1 0.0
04/01:30pm 11.2 7.4 3.7 60 3.4 SSW 13 19 7 10 1025.3 1025.4 0.0
04/01:00pm 11.7 8.6 3.5 57 3.6 SW 9 17 5 9 1025.7 1025.8 0.0
04/12:30pm 11.4 8.0 4.2 61 3.3 SSW 11 19 6 10 1026.1 1026.2 0.0
04/12:00pm 10.9 7.1 3.7 61 3.2 S 13 19 7 10 1026.5 1026.6 0.0
04/11:30am 10.4 7.1 2.7 59 3.3 S 9 17 5 9 1026.9 1027.0 0.0
04/11:00am 10.2 7.0 3.0 61 3.1 S 9 19 5 10 1027.2 1027.3 0.0
04/10:30am 10.0 6.9 3.5 64 2.9 SW 9 19 5 10 1027.3 1027.5 0.0
04/10:00am 10.2 7.1 3.7 64 2.9 S 9 17 5 9 1027.4 1027.6 0.0
04/09:30am 8.9 6.0 4.7 75 1.9 SSW 9 11 5 6 1027.4 1027.6 0.0
04/09:00am 7.9 5.7 6.0 88 0.9 S 7 13 4 7 1027.4 1027.6 0.4
04/08:30am 6.6 5.4 6.5 99 0.0 SW 2 7 1 4 1027.3 1027.5 0.4
04/08:00am 4.7 2.4 4.6 99 0.0 SW 6 9 3 5 1027.1 1027.2 0.4
04/07:30am 3.3 0.7 3.2 99 0.0 SW 6 7 3 4 1026.8 1026.9 0.4
04/07:00am 2.9 0.0 2.8 99 0.0 SW 7 9 4 5 1026.4 1026.5 0.4
04/06:30am 3.6 0.9 3.5 99 0.0 SSW 7 9 4 5 1026.0 1026.1 0.4
04/06:00am 3.7 0.6 3.6 99 0.0 SW 9 9 5 5 1025.9 1026.0 0.4
04/05:30am 3.3 0.7 3.2 99 0.0 SW 6 7 3 4 1025.5 1025.6 0.4
04/05:00am 3.5 0.7 3.4 99 0.0 SW 7 9 4 5 1025.3 1025.4 0.4
04/04:30am 4.3 1.3 4.2 99 0.0 SW 9 11 5 6 1024.9 1025.0 0.4
04/04:00am 4.5 2.1 4.4 99 0.0 SSW 6 9 3 5 1024.7 1024.8 0.4
04/03:30am 4.8 1.9 4.7 99 0.0 SW 9 11 5 6 1024.8 1024.9 0.4
04/03:00am 4.8 2.3 4.7 99 0.0 SW 7 7 4 4 1024.9 1025.0 0.4
04/02:30am 5.2 2.4 5.1 99 0.0 SSW 9 11 5 6 1025.1 1025.2 0.4
04/02:00am 5.7 3.4 5.6 99 0.0 SSW 7 9 4 5 1025.2 1025.3 0.4
04/01:30am 5.9 3.6 5.8 99 0.0 SSW 7 9 4 5 1025.1 1025.2 0.4
04/01:00am 6.1 3.9 6.0 99 0.0 SSW 7 13 4 7 1025.1 1025.2 0.4
04/12:30am 6.5 3.9 6.2 98 0.1 SSW 9 11 5 6 1025.0 1025.1 0.4
04/12:00am 7.1 4.3 7.0 99 0.0 S 11 15 6 8 1024.7 1024.8 0.4
 
Date/Time
EST
Temp
°C
App
Temp
°C
Dew
Point
Rel
Hum
%
Delta-T
°C
Wind Press
QNH
hPa
Press
MSL
hPa
Rain
since 9 am
mm
Dir
 
Spd
km/h
Gust
km/h
Spd
kts
Gust
kts
03/11:30pm 6.6 4.1 6.5 99 0.0 SSW 9 11 5 6 1024.7 1024.8 0.4
03/11:00pm 7.0 4.5 6.4 96 0.3 SSW 9 11 5 6 1024.8 1024.9 0.4
03/10:30pm 7.5 5.0 6.4 93 0.5 SSW 9 17 5 9 1024.6 1024.7 0.4
03/10:00pm 7.8 4.9 6.3 90 0.7 S 11 17 6 9 1024.3 1024.4 0.4
03/09:30pm 9.2 5.8 7.5 89 0.8 SSE 15 22 8 12 1024.1 1024.3 0.4
03/09:00pm 9.6 6.5 7.2 85 1.1 S 13 19 7 10 1023.9 1024.1 0.4
03/08:30pm 9.9 6.8 7.2 83 1.3 S 13 19 7 10 1023.4 1023.6 0.4
03/08:00pm 10.0 6.5 7.4 84 1.2 S 15 20 8 11 1023.1 1023.3 0.4
03/07:30pm 10.0 6.6 7.6 85 1.2 S 15 20 8 11 1022.9 1023.1 0.4
03/07:00pm 10.2 6.0 8.1 87 1.0 SSE 20 28 11 15 1022.4 1022.5 0.4
03/06:30pm 10.3 5.7 8.1 86 1.1 SSE 22 30 12 16 1022.0 1022.1 0.4
03/06:00pm 10.7 7.7 9.3 91 0.7 S 15 19 8 10 1021.6 1021.7 0.4
03/05:30pm 11.1 6.7 9.0 87 1.1 SSE 22 28 12 15 1021.0 1021.1 0.4
03/05:00pm 11.7 8.1 10.4 92 0.7 S 20 28 11 15 1020.5 1020.6 0.4
03/04:30pm 12.3 7.9 9.0 80 1.7 SSE 22 30 12 16 1019.9 1020.0 0.4
03/04:00pm 13.2 8.2 9.5 78 1.9 S 26 37 14 20 1019.6 1019.7 0.4
03/03:30pm 13.5 10.1 10.7 83 1.5 S 19 24 10 13 1019.3 1019.4 0.4
03/03:00pm 12.1 7.6 10.0 87 1.1 S 24 35 13 19 1019.0 1019.1 0.4
03/02:30pm 13.1 9.6 12.2 94 0.5 S 22 32 12 17 1018.5 1018.7 0.4
03/02:00pm 12.7 9.1 10.4 86 1.2 SSW 20 32 11 17 1018.1 1018.2 0.4
03/01:30pm 12.8 10.3 12.2 96 0.3 S 17 22 9 12 1017.9 1018.0 0.4
03/01:00pm 11.4 7.8 10.6 95 0.4 S 20 28 11 15 1018.1 1018.2 0.2
03/12:30pm 12.6 9.6 10.8 89 0.9 SSW 17 24 9 13 1017.8 1017.9 0.0
03/12:00pm 13.0 10.1 11.1 88 1.0 SSW 17 26 9 14 1017.8 1017.9 0.0
03/11:30am 11.8 8.9 10.9 94 0.5 S 17 26 9 14 1017.8 1017.9 0.0
03/11:00am 12.6 8.5 10.1 85 1.3 S 22 32 12 17 1017.4 1017.5 0.0
03/10:30am 12.5 8.6 10.7 89 0.9 S 22 28 12 15 1017.2 1017.3 0.0
03/10:00am 12.1 8.3 11.0 93 0.6 S 22 32 12 17 1017.0 1017.1 0.0
03/09:30am 11.5 8.2 10.9 96 0.3 S 19 30 10 16 1016.2 1016.3 0.0
03/09:00am 10.9 7.9 10.7 99 0.1 S 17 24 9 13 1015.6 1015.7 16.2
03/08:30am 10.5 7.0 10.3 99 0.1 S 19 26 10 14 1014.9 1015.0 16.2
03/08:00am 10.0 7.2 9.9 99 0.1 S 15 24 8 13 1014.3 1014.4 16.2
03/07:30am 9.9 6.7 9.8 99 0.1 S 17 22 9 12 1013.6 1013.6 16.2
03/07:00am 9.6 6.3 9.5 99 0.1 S 17 24 9 13 1012.7 1012.8 16.2
03/06:30am 9.4 5.7 9.3 99 0.0 S 19 24 10 13 1011.8 1011.9 16.2
03/06:00am 9.5 6.2 9.4 99 0.1 S 17 24 9 13 1011.2 1011.3 16.2
03/05:30am 9.5 5.8 9.4 99 0.1 S 19 28 10 15 1010.4 1010.5 16.2
03/05:00am 9.5 5.8 9.4 99 0.1 S 19 26 10 14 1009.9 1010.0 16.2
03/04:30am 9.5 5.8 9.4 99 0.1 S 19 24 10 13 1009.3 1009.3 16.2
03/04:00am 9.4 5.5 9.3 99 0.1 SSE 20 28 11 15 1008.9 1008.9 16.2
03/03:30am 9.2 5.2 9.1 99 0.0 S 20 32 11 17 1008.5 1008.5 16.2
03/03:00am 9.1 5.1 9.0 99 0.0 S 20 30 11 16 1008.2 1008.2 16.2
03/02:30am 9.1 5.3 9.0 99 0.0 S 19 30 10 16 1008.4 1008.4 16.2
03/02:00am 8.9 5.4 8.8 99 0.0 S 17 26 9 14 1008.5 1008.5 16.2
03/01:30am 8.8 5.3 8.7 99 0.0 SSW 17 28 9 15 1008.1 1008.1 16.2
03/01:00am 8.8 5.3 8.8 100 0.0 SSW 17 28 9 15 1008.0 1008.0 16.0
03/12:30am 8.7 5.2 8.7 100 0.0 SSW 17 24 9 13 1007.9 1007.9 16.0
03/12:00am 8.5 5.7 8.5 100 0.0 SSW 13 19 7 10 1007.7 1007.7 16.0
 
Date/Time
EST
Temp
°C
App
Temp
°C
Dew
Point
Rel
Hum
%
Delta-T
°C
Wind Press
QNH
hPa
Press
MSL
hPa
Rain
since 9 am
mm
Dir
 
Spd
km/h
Gust
km/h
Spd
kts
Gust
kts
02/11:30pm 8.5 6.1 8.5 100 0.0 SSW 11 15 6 8 1007.7 1007.7 16.0
02/11:00pm 8.5 6.1 8.5 100 0.0 SSW 11 15 6 8 1007.7 1007.7 16.0
02/10:30pm 8.5 7.0 8.5 100 0.0 SSW 6 9 3 5 1007.4 1007.5 15.8
02/10:00pm 8.5 6.8 8.5 100 0.0 SSW 7 11 4 6 1007.2 1007.3 15.8
02/09:30pm 8.6 5.8 8.6 100 0.0 S 13 17 7 9 1007.0 1007.1 15.6
02/09:00pm 8.7 6.3 8.7 100 0.0 S 11 13 6 7 1006.9 1007.0 14.6
02/08:30pm 8.8 6.4 8.8 100 0.0 SSE 11 13 6 7 1006.7 1006.8 13.2
02/08:00pm 8.7 6.7 8.7 100 0.0 SSE 9 13 5 7 1006.3 1006.4 13.0
02/07:30pm 8.7 7.1 8.7 100 0.0 SSE 7 9 4 5 1006.0 1006.1 13.0
02/07:00pm 8.6 8.3 8.5 99 0.0 CALM 0 0 0 0 1005.8 1005.9 12.8
02/06:30pm 8.8 7.2 8.7 99 0.0 SE 7 9 4 5 1005.6 1005.7 12.4
02/06:00pm 8.9 6.9 8.8 99 0.0 ESE 9 13 5 7 1005.4 1005.5 12.0
02/05:30pm 9.2 7.7 9.1 99 0.0 E 7 9 4 5 1005.4 1005.5 11.0
02/05:00pm 9.3 7.4 9.2 99 0.1 ENE 9 11 5 6 1005.3 1005.4 10.6
02/04:30pm 9.4 6.8 9.3 99 0.0 NE 13 17 7 9 1005.2 1005.3 10.2
02/04:00pm 9.6 6.7 9.5 99 0.1 NE 15 20 8 11 1004.9 1004.9 9.6
02/03:30pm 9.5 6.5 9.4 99 0.1 ENE 15 17 8 9 1004.6 1004.6 9.6
02/03:00pm 9.5 6.5 9.4 99 0.1 ENE 15 20 8 11 1004.8 1004.8 9.6
02/02:30pm 9.7 6.8 9.6 99 0.1 NNE 15 19 8 10 1005.8 1005.9 9.6
02/02:00pm 9.4 6.4 9.3 99 0.1 N 15 22 8 12 1006.0 1006.1 8.2
02/01:30pm 9.5 6.2 9.4 99 0.1 N 17 22 9 12 1006.4 1006.5 7.0
02/01:00pm 9.4 6.8 9.3 99 0.1 N 13 20 7 11 1006.7 1006.8 6.2
02/12:30pm 9.1 5.7 9.0 99 0.0 NNE 17 20 9 11 1007.2 1007.3 5.4
02/12:00pm 8.9 4.8 8.8 99 0.0 NNE 20 28 11 15 1007.7 1007.7 4.4
02/11:30am 9.0 4.6 8.9 99 0.0 NNE 22 30 12 16 1007.7 1007.7 2.8
02/11:00am 9.1 3.9 9.0 99 0.0 NE 26 37 14 20 1007.4 1007.5 2.2
02/10:30am 9.1 4.3 9.0 99 0.0 NE 24 33 13 18 1007.4 1007.5 2.2
02/10:00am 8.5 3.1 8.1 97 0.2 NE 26 35 14 19 1008.0 1008.0 2.0
02/09:30am 8.4 3.9 7.0 91 0.7 NE 20 30 11 16 1008.3 1008.3 1.4
02/09:00am 9.4 3.5 5.9 79 1.6 NNE 26 39 14 21 1009.1 1009.1 0.2
02/08:30am 9.5 4.3 5.5 76 1.8 NNE 22 33 12 18 1009.0 1009.0 0.2
02/08:00am 9.9 4.2 4.9 71 2.3 NNE 24 39 13 21 1008.9 1008.9 0.0
02/07:30am 9.8 4.5 4.8 71 2.3 NE 22 28 12 15 1008.1 1008.1 0.0
02/07:00am 9.8 4.0 4.6 70 2.4 NE 24 35 13 19 1008.2 1008.2 0.0
02/06:30am 9.6 4.2 4.6 71 2.3 NE 22 30 12 16 1008.3 1008.3 0.0
02/06:00am 9.8 4.7 4.0 67 2.6 NE 20 24 11 13 1008.5 1008.5 0.0
02/05:30am 9.7 4.7 3.4 65 2.8 NNE 19 28 10 15 1008.8 1008.8 0.0
02/05:00am 9.6 4.4 3.6 66 2.6 NNE 20 28 11 15 1008.8 1008.8 0.0
02/04:30am 9.5 4.4 3.3 65 2.7 NNE 19 22 10 12 1008.9 1008.9 0.0
02/04:00am 9.8 5.2 3.5 65 2.8 NE 17 22 9 12 1009.0 1009.0 0.0
02/03:30am 9.6 5.0 3.6 66 2.6 NNE 17 20 9 11 1009.3 1009.3 0.0
02/03:00am 9.8 4.8 3.5 65 2.8 NE 19 24 10 13 1009.7 1009.8 0.0
02/02:30am 10.1 5.1 3.4 63 2.9 NE 19 24 10 13 1009.9 1010.0 0.0
02/02:00am 10.2 5.2 3.7 64 2.9 NE 19 24 10 13 1010.2 1010.3 0.0
02/01:30am 10.5 5.3 3.5 62 3.1 NE 20 28 11 15 1010.4 1010.5 0.0
02/01:00am 10.5 5.3 3.3 61 3.2 NE 20 30 11 16 1010.4 1010.5 0.0
02/12:30am 10.8 5.6 3.4 60 3.3 NE 20 26 11 14 1010.6 1010.7 0.0
02/12:00am 10.8 5.6 3.4 60 3.3 NNE 20 26 11 14 1010.7 1010.8 0.0
 
Date/Time
EST
Temp
°C
App
Temp
°C
Dew
Point
Rel
Hum
%
Delta-T
°C
Wind Press
QNH
hPa
Press
MSL
hPa
Rain
since 9 am
mm
Dir
 
Spd
km/h
Gust
km/h
Spd
kts
Gust
kts
01/11:30pm 11.0 5.0 3.1 58 3.5 NE 24 32 13 17 1010.6 1010.7 0.0
01/11:00pm 11.2 5.1 3.0 57 3.6 NE 24 30 13 16 1010.8 1010.9 0.0
01/10:30pm 11.6 5.6 3.1 56 3.8 NE 24 32 13 17 1010.9 1011.0 0.0
01/10:00pm 12.1 6.8 3.1 54 4.0 NE 20 28 11 15 1011.0 1011.1 0.0
01/09:30pm 12.5 7.5 3.5 54 4.1 NE 19 22 10 12 1011.0 1011.1 0.0
01/09:00pm 12.2 7.6 3.7 56 3.8 NE 17 20 9 11 1011.0 1011.1 0.0
01/08:30pm 12.1 7.7 4.6 60 3.4 NE 17 20 9 11 1011.0 1011.1 0.0

Other Formats:

Comma delimited format used in spreadsheet applications
http://www.bom.gov.au/fwo/IDV60801/IDV60801.95827.axf

JavaScript Object Notation format (JSON) in row-major order
http://www.bom.gov.au/fwo/IDV60801/IDV60801.95827.json